Time;durP1;ratioP1;P1;durP2;ratioP2;P2;SDS_P1;SDS_P2;PMS_P1;PMS_P2;Temp;Humidity;BMP_temperature;BMP_pressure;BME280_temperature;BME280_humidity;BME280_pressure;Samples;Min_cycle;Max_cycle;Signal;HPM_P1;HPM_P2
2022/03/24 06:27:49;;;;;;;;;;;;;;;8.38;60.41;97949.81;4258037;27;10190;-61
2022/03/24 06:29:52;;;;;;;;;;;;;;;8.47;60.70;97954.19;4250694;27;5744;-61
2022/03/24 06:31:53;;;;;;;;;;;;;;;8.50;60.58;97961.81;4255463;27;5653;-61
2022/03/24 06:33:56;;;;;;;;;;;;;;;8.50;60.54;97953.91;4262205;27;5733;-61
2022/03/24 06:35:58;;;;;;;;;;;;;;;8.51;60.91;97958.19;4262919;27;5706;-61
2022/03/24 06:37:59;;;;;;;;;;;;;;;8.55;61.32;97950.81;4254814;27;5645;-61
2022/03/24 06:40:01;;;;;;;;;;;;;;;8.46;62.02;97957.81;4258685;27;5632;-61
2022/03/24 06:42:02;;;;;;;;;;;;;;;8.50;61.45;97959.19;4265402;27;5628;-61
2022/03/24 06:44:07;;;;;;;;;;;;;;;8.60;60.96;97964.34;4265231;27;5643;-62
2022/03/24 06:46:09;;;;;;;;;;;;;;;8.33;59.98;97952.06;4257300;27;5631;-62
2022/03/24 06:48:13;;;;;;;;;;;;;;;8.49;59.95;97949.59;4247745;27;5639;-61
2022/03/24 06:50:14;;;;;;;;;;;;;;;8.63;59.64;97954.34;4248051;27;5696;-62
2022/03/24 06:52:16;;;;;;;;;;;;;;;8.57;58.25;97957.56;4251190;27;5813;-62
2022/03/24 06:54:18;;;;;;;;;;;;;;;8.33;56.61;97955.53;4246540;27;5661;-62
2022/03/24 06:56:19;;;;;;;;;;;;;;;8.38;57.04;97957.72;4249642;27;6379;-62
2022/03/24 06:58:23;;;;;;;;;;;;;;;8.54;57.25;97963.16;4248735;27;5638;-61
2022/03/24 07:00:24;;;;;;;;;;;;;;;8.49;55.96;97962.75;4263906;27;5648;-62
2022/03/24 07:02:26;;;;;;;;;;;;;;;8.56;55.96;97963.00;4253892;27;5725;-62
2022/03/24 07:04:28;;;;;;;;;;;;;;;8.61;55.82;97966.84;4252312;27;5632;-61
2022/03/24 07:06:29;;;;;;;;;;;;;;;8.74;55.66;97959.38;4264588;27;5635;-61
2022/03/24 07:08:31;;;;;;;;;;;;;;;8.55;55.22;97969.25;4263393;27;5738;-62
2022/03/24 07:10:33;;;;;;;;;;;;;;;8.60;55.50;97959.06;4265082;27;5659;-62
2022/03/24 07:12:34;;;;;;;;;;;;;;;8.75;55.61;97963.66;4264484;27;5652;-63
2022/03/24 07:14:36;;;;;;;;;;;;;;;8.68;54.76;97962.59;4246609;27;5664;-61
2022/03/24 07:16:38;;;;;;;;;;;;;;;8.83;54.87;97956.78;4263406;27;5677;-61
2022/03/24 07:18:40;;;;;;;;;;;;;;;8.70;54.33;97965.09;4264477;27;5636;-62
2022/03/24 07:20:42;;;;;;;;;;;;;;;8.71;54.96;97964.94;4264549;27;5620;-62
2022/03/24 07:22:45;;;;;;;;;;;;;;;8.79;57.66;97964.16;4264671;27;5639;-62
2022/03/24 07:24:47;;;;;;;;;;;;;;;8.91;60.88;97973.50;4263691;27;5641;-61
2022/03/24 07:26:49;;;;;;;;;;;;;;;9.02;61.97;97967.97;4270891;27;5618;-61
2022/03/24 07:28:51;;;;;;;;;;;;;;;9.03;60.63;97966.16;4270199;27;6268;-63
2022/03/24 07:30:52;;;;;;;;;;;;;;;9.10;60.72;97969.00;4262718;27;5640;-62
2022/03/24 07:32:56;;;;;;;;;;;;;;;9.08;60.51;97963.91;4252763;27;6280;-62
2022/03/24 07:34:58;;;;;;;;;;;;;;;9.14;60.25;97963.25;4253139;27;6302;-62
2022/03/24 07:37:01;;;;;;;;;;;;;;;9.09;59.77;97965.56;4253114;27;5620;-62
2022/03/24 07:39:03;;;;;;;;;;;;;;;9.06;60.33;97960.59;4253053;27;5627;-62
2022/03/24 07:41:06;;;;;;;;;;;;;;;8.67;62.63;97960.13;4253096;27;6414;-62
2022/03/24 07:43:08;;;;;;;;;;;;;;;8.83;61.62;97965.50;4252968;27;5623;-62
2022/03/24 07:45:10;;;;;;;;;;;;;;;8.81;62.23;97964.00;4253025;27;5647;-62
2022/03/24 07:47:11;;;;;;;;;;;;;;;8.71;62.51;97964.94;4252566;27;5785;-61
2022/03/24 07:49:15;;;;;;;;;;;;;;;8.94;62.13;97967.06;4252888;27;5750;-62
2022/03/24 07:51:18;;;;;;;;;;;;;;;9.06;61.92;97965.88;4252865;27;5664;-63
2022/03/24 07:53:23;;;;;;;;;;;;;;;8.95;62.25;97964.31;4234620;27;5600;-62
2022/03/24 07:55:29;;;;;;;;;;;;;;;9.04;61.03;97968.63;4252571;27;5635;-62
2022/03/24 07:57:31;;;;;;;;;;;;;;;9.11;60.92;97973.31;4252701;27;5628;-61
2022/03/24 07:59:33;;;;;;;;;;;;;;;9.15;61.51;97964.91;4252894;27;5632;-62
2022/03/24 08:01:36;;;;;;;;;;;;;;;9.09;61.39;97970.81;4240172;27;5910;-62
2022/03/24 08:03:38;;;;;;;;;;;;;;;9.27;59.96;97963.66;4235384;28;5657;-62
2022/03/24 08:05:40;;;;;;;;;;;;;;;9.32;59.63;97966.69;4248542;27;5733;-62
2022/03/24 08:07:42;;;;;;;;;;;;;;;9.42;59.62;97965.75;4252704;27;8428;-62
2022/03/24 08:09:44;;;;;;;;;;;;;;;9.49;59.41;97964.09;4236599;27;5638;-62
2022/03/24 08:11:48;;;;;;;;;;;;;;;9.57;57.21;97962.34;4234139;27;5611;-62
2022/03/24 08:13:54;;;;;;;;;;;;;;;9.53;56.38;97961.00;4237579;27;5657;-62
2022/03/24 08:15:56;;;;;;;;;;;;;;;9.59;56.51;97967.47;4237169;27;5656;-62
2022/03/24 08:17:58;;;;;;;;;;;;;;;9.47;55.76;97969.56;4235177;28;5648;-62
2022/03/24 08:20:00;;;;;;;;;;;;;;;9.49;55.98;97970.22;4235507;28;5673;-62
2022/03/24 08:22:02;;;;;;;;;;;;;;;9.26;56.03;97975.19;4235281;28;5748;-62
2022/03/24 08:24:05;;;;;;;;;;;;;;;9.47;56.17;97979.28;4235518;28;5833;-62
2022/03/24 08:26:07;;;;;;;;;;;;;;;9.37;59.34;97976.75;4235190;28;5899;-62
2022/03/24 08:28:10;;;;;;;;;;;;;;;9.54;59.72;97975.03;4268723;27;6291;-62
2022/03/24 08:30:12;;;;;;;;;;;;;;;9.60;60.18;97974.41;4269402;27;5610;-62
2022/03/24 08:32:15;;;;;;;;;;;;;;;9.56;59.48;97976.53;4269126;27;6122;-62
2022/03/24 08:34:16;;;;;;;;;;;;;;;9.59;60.68;97980.66;4269544;27;5617;-62
2022/03/24 08:36:18;;;;;;;;;;;;;;;9.65;60.78;97980.03;4269586;27;5602;-62
2022/03/24 08:38:20;;;;;;;;;;;;;;;9.50;62.49;97973.69;4269352;27;5073;-62
2022/03/24 08:40:22;;;;;;;;;;;;;;;9.53;60.93;97976.03;4268373;27;5599;-62
2022/03/24 08:42:26;;;;;;;;;;;;;;;9.72;61.62;97978.41;4269286;27;5623;-62
2022/03/24 08:44:28;;;;;;;;;;;;;;;9.24;63.47;97974.53;4269239;27;5630;-62
2022/03/24 08:46:29;;;;;;;;;;;;;;;9.33;62.16;97978.88;4269061;27;5645;-63
2022/03/24 08:48:32;;;;;;;;;;;;;;;9.41;62.04;97977.28;4268826;27;5595;-62
2022/03/24 08:50:35;;;;;;;;;;;;;;;9.52;60.60;97980.47;4269257;27;5611;-62
2022/03/24 08:52:37;;;;;;;;;;;;;;;9.59;58.89;97980.66;4269342;27;5598;-63
2022/03/24 08:54:39;;;;;;;;;;;;;;;9.62;57.83;97970.59;4268118;27;6388;-62
2022/03/24 08:56:41;;;;;;;;;;;;;;;9.60;57.02;97974.41;4269304;27;5623;-62
2022/03/24 08:58:43;;;;;;;;;;;;;;;9.68;56.83;97974.44;4267934;27;5068;-64
2022/03/24 09:00:46;;;;;;;;;;;;;;;9.76;57.38;97979.75;4268864;27;5789;-62
2022/03/24 09:02:55;;;;;;;;;;;;;;;9.86;57.23;97977.00;4268616;27;5631;-62
2022/03/24 09:04:57;;;;;;;;;;;;;;;9.86;57.06;97985.75;4266600;27;5619;-62
2022/03/24 09:07:14;;;;;;;;;;;;;;;9.51;59.48;97980.63;4251700;27;6394;-62
2022/03/24 09:09:16;;;;;;;;;;;;;;;9.63;57.59;97980.22;4251626;27;5889;-62
2022/03/24 09:11:20;;;;;;;;;;;;;;;9.79;57.76;97979.44;4250294;27;6769;-62
2022/03/24 09:13:22;;;;;;;;;;;;;;;9.84;57.92;97976.31;4251381;27;5615;-62
2022/03/24 09:15:24;;;;;;;;;;;;;;;9.82;57.89;97976.47;4251305;27;7394;-62
2022/03/24 09:17:26;;;;;;;;;;;;;;;9.92;57.17;97978.97;4236318;27;6288;-62
2022/03/24 09:19:29;;;;;;;;;;;;;;;9.96;57.29;97979.47;4232978;28;5608;-63
2022/03/24 09:21:30;;;;;;;;;;;;;;;9.85;58.05;97976.16;4234210;28;6362;-62
2022/03/24 09:23:32;;;;;;;;;;;;;;;9.44;59.35;97979.59;4234273;28;5657;-62
2022/03/24 09:25:34;;;;;;;;;;;;;;;9.43;59.28;97983.22;4234328;28;5056;-61
2022/03/24 09:27:36;;;;;;;;;;;;;;;9.78;58.85;97976.97;4257324;27;8466;-62
2022/03/24 09:29:38;;;;;;;;;;;;;;;9.79;58.25;97979.44;4268716;27;5614;-61
2022/03/24 09:31:41;;;;;;;;;;;;;;;9.99;58.42;97973.91;4268579;27;5618;-62
2022/03/24 09:33:43;;;;;;;;;;;;;;;10.02;57.04;97973.56;4266804;27;5747;-62
2022/03/24 09:35:45;;;;;;;;;;;;;;;10.08;56.24;97972.91;4267454;27;5678;-62
2022/03/24 09:37:50;;;;;;;;;;;;;;;10.08;55.39;97975.56;4268160;27;5607;-62
2022/03/24 09:39:51;;;;;;;;;;;;;;;10.18;54.87;97978.88;4268398;27;5649;-62
2022/03/24 09:41:53;;;;;;;;;;;;;;;10.09;54.32;97982.53;4268478;27;5607;-62
2022/03/24 09:43:57;;;;;;;;;;;;;;;10.16;54.69;97972.94;4284408;27;5848;-62
2022/03/24 09:46:02;;;;;;;;;;;;;;;10.19;54.62;97976.09;4268037;27;5614;-62
2022/03/24 09:48:06;;;;;;;;;;;;;;;10.33;54.49;97977.31;4267881;27;5618;-62
2022/03/24 09:50:10;;;;;;;;;;;;;;;10.42;56.37;97976.34;4268264;27;5770;-62
2022/03/24 09:52:12;;;;;;;;;;;;;;;10.44;57.02;97974.38;4267974;27;5603;-62
2022/03/24 09:54:16;;;;;;;;;;;;;;;10.46;56.92;97967.09;4268305;27;5690;-63
2022/03/24 09:56:19;;;;;;;;;;;;;;;10.51;57.18;97974.50;4268159;27;5614;-63
2022/03/24 09:58:25;;;;;;;;;;;;;;;10.54;52.68;97974.22;4267821;27;5599;-63
2022/03/24 10:00:27;;;;;;;;;;;;;;;10.36;46.98;97966.41;4268104;27;5654;-63
2022/03/24 10:02:30;;;;;;;;;;;;;;;10.56;51.37;97963.47;4267680;27;5586;-63
2022/03/24 10:04:51;;;;;;;;;;;;;;;10.67;50.01;97965.78;4267714;27;5614;-63
2022/03/24 10:07:00;;;;;;;;;;;;;;;10.75;50.89;97957.81;4234060;28;5667;-62
2022/03/24 10:09:04;;;;;;;;;;;;;;;10.58;51.92;97961.47;4233821;28;5781;-62
2022/03/24 10:11:08;;;;;;;;;;;;;;;10.70;51.27;97962.81;4233925;28;5780;-62
2022/03/24 10:13:10;;;;;;;;;;;;;;;10.67;50.96;97957.84;4233554;28;5765;-62
2022/03/24 10:15:13;;;;;;;;;;;;;;;10.64;51.03;97958.16;4233811;28;5661;-62
2022/03/24 10:17:17;;;;;;;;;;;;;;;10.52;50.35;97957.66;4246372;27;5632;-62
2022/03/24 10:19:19;;;;;;;;;;;;;;;10.63;47.83;97957.34;4249522;27;5604;-62
2022/03/24 10:21:23;;;;;;;;;;;;;;;10.64;50.12;97955.50;4250643;27;5078;-62
2022/03/24 10:23:33;;;;;;;;;;;;;;;10.65;49.09;97950.09;4249414;27;5589;-62
2022/03/24 10:25:39;;;;;;;;;;;;;;;10.84;46.82;97945.44;4249298;27;5613;-62
2022/03/24 10:27:41;;;;;;;;;;;;;;;10.89;44.91;97938.66;4279266;27;5555;-62
2022/03/24 10:29:47;;;;;;;;;;;;;;;10.91;45.49;97946.44;4267443;27;5595;-62
2022/03/24 10:31:57;;;;;;;;;;;;;;;10.86;49.46;97940.78;4267770;27;5602;-62
2022/03/24 10:34:02;;;;;;;;;;;;;;;10.99;49.25;97944.59;4267403;27;5723;-62
2022/03/24 10:36:19;;;;;;;;;;;;;;;11.04;47.04;97939.63;4268051;27;5594;-62
2022/03/24 10:38:33;;;;;;;;;;;;;;;11.03;48.91;97931.84;4267869;27;5617;-62
2022/03/24 10:40:35;;;;;;;;;;;;;;;10.87;50.90;97937.16;4267799;27;5615;-62
2022/03/24 10:42:40;;;;;;;;;;;;;;;11.02;51.18;97931.03;4266017;27;6264;-62
2022/03/24 10:45:01;;;;;;;;;;;;;;;11.05;51.53;97924.56;4266405;27;5778;-62
2022/03/24 10:47:04;;;;;;;;;;;;;;;11.20;51.69;97922.06;4265848;27;7233;-61
2022/03/24 10:49:25;;;;;;;;;;;;;;;11.40;50.13;97925.97;4266274;27;5633;-61
2022/03/24 10:51:33;;;;;;;;;;;;;;;11.46;50.50;97922.66;4249486;27;5703;-62
2022/03/24 10:53:42;;;;;;;;;;;;;;;11.48;51.28;97917.19;4267915;27;5726;-62
2022/03/24 10:55:45;;;;;;;;;;;;;;;11.39;49.41;97919.03;4267551;27;5601;-61
2022/03/24 10:57:47;;;;;;;;;;;;;;;11.44;50.48;97918.50;4267624;27;5627;-62
2022/03/24 10:59:58;;;;;;;;;;;;;;;11.47;51.28;97918.19;4267704;27;5606;-61
2022/03/24 11:02:00;;;;;;;;;;;;;;;11.47;49.62;97923.47;4267633;27;5626;-62
2022/03/24 11:04:03;;;;;;;;;;;;;;;11.37;50.58;97918.38;4270148;27;6389;-61
2022/03/24 11:06:08;;;;;;;;;;;;;;;11.44;50.00;97918.50;4259205;27;5095;-61
2022/03/24 11:08:16;;;;;;;;;;;;;;;11.49;50.45;97906.41;4253922;27;5624;-62
2022/03/24 11:10:17;;;;;;;;;;;;;;;11.45;50.39;97906.94;4253585;27;5619;-62
2022/03/24 11:12:26;;;;;;;;;;;;;;;11.52;49.47;97913.19;4252102;27;5184;-62
2022/03/24 11:14:27;;;;;;;;;;;;;;;11.55;49.02;97910.19;4253613;27;5707;-61
2022/03/24 11:16:32;;;;;;;;;;;;;;;11.60;48.70;97900.75;4246588;27;5786;-61
2022/03/24 11:18:35;;;;;;;;;;;;;;;11.39;47.64;97900.50;4235836;28;6319;-61
2022/03/24 11:20:40;;;;;;;;;;;;;;;11.57;45.45;97894.97;4236450;28;5685;-62
2022/03/24 11:22:54;;;;;;;;;;;;;;;11.54;44.47;97890.81;4236168;28;6334;-62
2022/03/24 11:24:56;;;;;;;;;;;;;;;11.63;45.19;97891.63;4236254;28;6413;-61
2022/03/24 11:26:58;;;;;;;;;;;;;;;11.65;47.15;97895.72;4247730;27;6291;-62
2022/03/24 11:29:00;;;;;;;;;;;;;;;11.83;46.22;97892.06;4270303;27;5619;-62
2022/03/24 11:31:05;;;;;;;;;;;;;;;11.88;47.91;97889.69;4269138;27;5570;-63
2022/03/24 11:33:08;;;;;;;;;;;;;;;11.98;46.68;97881.53;4269941;27;5681;-61
2022/03/24 11:35:11;;;;;;;;;;;;;;;12.02;48.03;97881.00;4270369;27;5594;-62
2022/03/24 11:37:13;;;;;;;;;;;;;;;11.80;46.05;97877.34;4270147;27;5621;-61
2022/03/24 11:39:14;;;;;;;;;;;;;;;11.91;45.70;97873.47;4269054;27;5686;-61
2022/03/24 11:41:27;;;;;;;;;;;;;;;11.95;44.81;97875.56;4270197;27;5659;-61
2022/03/24 11:43:33;;;;;;;;;;;;;;;12.03;40.54;97872.06;4270196;27;5618;-62
2022/03/24 11:45:40;;;;;;;;;;;;;;;12.10;40.15;97866.84;4270022;27;5619;-61
2022/03/24 11:48:12;;;;;;;;;;;;;;;12.15;39.50;97869.81;4269701;27;5615;-61
2022/03/24 11:50:17;;;;;;;;;;;;;;;12.19;40.40;97856.03;4257000;27;5603;-62
2022/03/24 11:52:19;;;;;;;;;;;;;;;12.22;40.08;97853.00;4269995;27;5629;-62
2022/03/24 11:54:35;;;;;;;;;;;;;;;12.16;38.66;97853.75;4269644;27;5723;-61
2022/03/24 11:56:37;;;;;;;;;;;;;;;12.20;40.05;97844.41;4269825;27;5690;-61
2022/03/24 11:58:54;;;;;;;;;;;;;;;12.26;39.91;97850.03;4269789;27;5618;-62
2022/03/24 12:00:56;;;;;;;;;;;;;;;12.30;41.26;97843.34;4269931;27;5690;-61
2022/03/24 12:03:00;;;;;;;;;;;;;;;12.32;40.42;97836.88;4269491;27;5611;-61
2022/03/24 12:05:03;;;;;;;;;;;;;;;12.20;42.25;97840.94;4267201;27;5831;-61
2022/03/24 12:07:05;;;;;;;;;;;;;;;12.38;41.48;97843.28;4251036;27;5601;-61
2022/03/24 12:09:09;;;;;;;;;;;;;;;12.34;41.11;97834.03;4252654;27;5679;-61
2022/03/24 12:11:33;;;;;;;;;;;;;;;12.47;40.97;97828.97;4252458;27;5636;-61
2022/03/24 12:13:35;;;;;;;;;;;;;;;12.46;41.12;97822.84;4252474;27;5730;-61
2022/03/24 12:15:37;;;;;;;;;;;;;;;12.52;40.68;97826.59;4252243;27;5699;-61
2022/03/24 12:18:00;;;;;;;;;;;;;;;12.30;37.70;97819.50;4235408;27;6338;-62
2022/03/24 12:20:22;;;;;;;;;;;;;;;12.45;38.10;97823.81;4235485;28;5649;-61
2022/03/24 12:22:24;;;;;;;;;;;;;;;12.27;38.81;97819.84;4235032;28;5660;-62
2022/03/24 12:24:35;;;;;;;;;;;;;;;12.47;39.98;97810.41;4235589;28;5732;-62
2022/03/24 12:26:47;;;;;;;;;;;;;;;12.56;39.14;97809.28;4240896;27;5574;-62
2022/03/24 12:29:12;;;;;;;;;;;;;;;12.74;39.26;97819.56;4269309;27;5606;-62
2022/03/24 12:31:16;;;;;;;;;;;;;;;12.75;37.48;97806.13;4268191;27;5575;-62
2022/03/24 12:33:32;;;;;;;;;;;;;;;12.54;40.54;97804.19;4267763;27;5578;-62
2022/03/24 12:35:42;;;;;;;;;;;;;;;12.60;40.61;97799.16;4269487;27;5696;-62
2022/03/24 12:37:47;;;;;;;;;;;;;;;12.75;40.79;97798.16;4266352;27;5618;-62
2022/03/24 12:40:10;;;;;;;;;;;;;;;12.68;39.56;97796.41;4238591;27;5657;-62
2022/03/24 12:42:16;;;;;;;;;;;;;;;12.73;40.47;97794.06;4248153;27;5723;-62
2022/03/24 12:44:48;;;;;;;;;;;;;;;12.79;38.94;97793.31;4251376;27;5782;-62
2022/03/24 12:46:59;;;;;;;;;;;;;;;12.89;39.60;97783.25;4250701;27;5616;-63
2022/03/24 12:49:10;;;;;;;;;;;;;;;12.96;38.14;97778.03;4250298;27;5589;-64
2022/03/24 12:51:19;;;;;;;;;;;;;;;12.94;37.87;97780.06;4245228;27;5758;-63
2022/03/24 12:53:21;;;;;;;;;;;;;;;13.01;38.11;97778.28;4247216;27;5631;-62
2022/03/24 12:55:26;;;;;;;;;;;;;;;13.00;37.39;97774.00;4244206;27;5873;-62
2022/03/24 12:57:33;;;;;;;;;;;;;;;12.97;37.41;97771.72;4234310;27;5128;-62
2022/03/24 12:59:36;;;;;;;;;;;;;;;13.07;38.06;97772.25;4234122;27;5648;-63
2022/03/24 13:01:39;;;;;;;;;;;;;;;13.13;38.50;97776.81;4233957;27;5653;-62
2022/03/24 13:03:42;;;;;;;;;;;;;;;13.13;38.26;97768.84;4233836;27;5645;-63
2022/03/24 13:05:49;;;;;;;;;;;;;;;13.12;37.39;97761.91;4237655;27;5649;-63
2022/03/24 13:07:53;;;;;;;;;;;;;;;13.08;38.38;97769.41;4234012;27;5676;-62
2022/03/24 13:10:12;;;;;;;;;;;;;;;13.07;37.92;97764.31;4233912;27;6079;-63
2022/03/24 13:12:14;;;;;;;;;;;;;;;13.13;37.71;97758.22;4237535;27;5635;-62
2022/03/24 13:14:19;;;;;;;;;;;;;;;13.06;37.88;97757.34;4232562;27;5687;-63
2022/03/24 13:16:22;;;;;;;;;;;;;;;13.13;37.20;97747.63;4234170;27;5727;-62
2022/03/24 13:18:24;;;;;;;;;;;;;;;13.26;37.85;97758.44;4233469;27;5657;-62
2022/03/24 13:20:55;;;;;;;;;;;;;;;13.38;37.71;97751.66;4246116;27;5748;-62
2022/03/24 13:23:03;;;;;;;;;;;;;;;13.42;36.74;97745.94;4232002;27;6361;-62
2022/03/24 13:25:08;;;;;;;;;;;;;;;13.33;37.65;97746.06;4234021;27;5676;-62
2022/03/24 13:27:09;;;;;;;;;;;;;;;13.42;38.02;97740.63;4234233;27;5744;-63
2022/03/24 13:29:12;;;;;;;;;;;;;;;13.36;36.75;97739.53;4244404;27;5774;-62
2022/03/24 13:31:14;;;;;;;;;;;;;;;13.42;36.86;97730.84;4249145;27;5811;-62
2022/03/24 13:33:17;;;;;;;;;;;;;;;13.52;36.83;97722.56;4249137;27;6443;-62
2022/03/24 13:35:22;;;;;;;;;;;;;;;13.62;36.81;97731.03;4249301;27;6309;-62
2022/03/24 13:37:29;;;;;;;;;;;;;;;13.69;36.18;97721.28;4249481;27;5631;-62
2022/03/24 13:39:33;;;;;;;;;;;;;;;13.69;36.17;97726.59;4247596;27;5766;-62
2022/03/24 13:41:36;;;;;;;;;;;;;;;13.69;35.49;97716.78;4247648;27;5705;-62
2022/03/24 13:43:39;;;;;;;;;;;;;;;13.69;35.61;97721.28;4249135;27;5730;-62
2022/03/24 13:45:41;;;;;;;;;;;;;;;13.75;35.89;97714.41;4229648;28;5726;-62
2022/03/24 13:47:45;;;;;;;;;;;;;;;13.80;36.23;97711.97;4243859;27;5819;-62
2022/03/24 13:49:47;;;;;;;;;;;;;;;13.85;35.06;97706.94;4251147;27;5636;-64
2022/03/24 13:51:48;;;;;;;;;;;;;;;13.75;36.13;97706.44;4245900;27;5758;-62
2022/03/24 13:53:50;;;;;;;;;;;;;;;13.81;35.95;97703.81;4232597;28;5783;-62
2022/03/24 13:56:13;;;;;;;;;;;;;;;13.98;36.84;97697.22;4233807;27;5657;-62
2022/03/24 13:58:17;;;;;;;;;;;;;;;14.03;37.68;97698.47;4245806;27;5628;-64
2022/03/24 14:00:39;;;;;;;;;;;;;;;14.06;37.15;97695.44;4249149;27;5651;-62
2022/03/24 14:02:43;;;;;;;;;;;;;;;14.12;37.02;97690.16;4246668;27;5597;-62
2022/03/24 14:05:13;;;;;;;;;;;;;;;14.23;37.46;97689.63;4233195;27;5666;-62
2022/03/24 14:07:15;;;;;;;;;;;;;;;14.28;37.61;97683.75;4247540;27;5889;-62
2022/03/24 14:09:22;;;;;;;;;;;;;;;14.30;37.34;97681.72;4248807;27;5650;-62
2022/03/24 14:11:25;;;;;;;;;;;;;;;14.31;36.85;97683.34;4249013;27;6288;-62
2022/03/24 14:13:39;;;;;;;;;;;;;;;14.36;36.95;97677.44;4237209;27;5761;-61
2022/03/24 14:15:42;;;;;;;;;;;;;;;14.45;37.82;97669.13;4248742;27;5822;-62
2022/03/24 14:17:44;;;;;;;;;;;;;;;14.50;38.06;97671.22;4240290;27;5631;-61
2022/03/24 14:19:54;;;;;;;;;;;;;;;14.53;38.52;97670.81;4247696;27;5119;-62
2022/03/24 14:22:01;;;;;;;;;;;;;;;14.59;38.46;97663.88;4232863;27;5748;-62
2022/03/24 14:24:03;;;;;;;;;;;;;;;14.60;39.02;97655.69;4245257;27;6402;-62
2022/03/24 14:26:12;;;;;;;;;;;;;;;14.59;38.21;97658.56;4248655;27;5723;-62
2022/03/24 14:28:47;;;;;;;;;;;;;;;14.60;38.09;97669.00;4240515;27;5821;-62
2022/03/24 14:30:48;;;;;;;;;;;;;;;14.61;38.76;97657.38;4232836;27;6389;-62
2022/03/24 14:32:52;;;;;;;;;;;;;;;14.53;38.32;97650.34;4232486;27;5661;-62
2022/03/24 14:35:19;;;;;;;;;;;;;;;14.60;37.66;97650.38;4231516;27;5608;-62
2022/03/24 14:37:21;;;;;;;;;;;;;;;14.71;38.32;97657.78;4234251;27;6688;-62
2022/03/24 14:39:23;;;;;;;;;;;;;;;14.70;38.22;97644.69;4236426;27;5645;-62
2022/03/24 14:41:25;;;;;;;;;;;;;;;14.63;38.39;97644.69;4234731;27;5804;-61
2022/03/24 14:43:26;;;;;;;;;;;;;;;14.69;38.71;97648.38;4246846;27;5756;-62
2022/03/24 14:45:30;;;;;;;;;;;;;;;14.73;38.76;97644.31;4252005;27;5699;-61
2022/03/24 14:47:32;;;;;;;;;;;;;;;14.72;38.68;97643.50;4238033;27;5665;-61
2022/03/24 14:49:35;;;;;;;;;;;;;;;14.73;38.11;97642.47;4234881;27;5612;-61
2022/03/24 14:51:37;;;;;;;;;;;;;;;14.73;38.48;97645.13;4237234;27;5621;-62
2022/03/24 14:53:39;;;;;;;;;;;;;;;14.77;38.26;97641.03;4235975;27;6386;-62
2022/03/24 14:55:42;;;;;;;;;;;;;;;14.77;38.32;97629.56;4234892;27;5600;-62
2022/03/24 14:57:46;;;;;;;;;;;;;;;14.80;38.64;97624.66;4239652;27;5661;-64
2022/03/24 14:59:47;;;;;;;;;;;;;;;14.82;37.49;97625.28;4236479;28;5641;-62
2022/03/24 15:01:49;;;;;;;;;;;;;;;14.87;38.24;97624.69;4236397;28;5656;-61
2022/03/24 15:03:52;;;;;;;;;;;;;;;14.91;38.41;97620.59;4235029;27;5585;-62
2022/03/24 15:05:53;;;;;;;;;;;;;;;14.98;38.59;97620.63;4235870;27;6289;-62
2022/03/24 15:07:55;;;;;;;;;;;;;;;14.95;38.38;97616.53;4235686;27;5744;-62
2022/03/24 15:09:57;;;;;;;;;;;;;;;14.96;38.32;97615.53;4235761;27;5657;-62
2022/03/24 15:11:59;;;;;;;;;;;;;;;15.00;38.59;97622.06;4238441;27;6455;-62
2022/03/24 15:16:22;;;;;;;;;;;;;;;15.04;38.53;97614.50;4245624;27;5679;-62
2022/03/24 15:18:24;;;;;;;;;;;;;;;15.05;38.35;97616.94;4251259;27;5835;-62
2022/03/24 15:20:29;;;;;;;;;;;;;;;15.07;38.43;97614.13;4250242;27;5692;-62
2022/03/24 15:22:31;;;;;;;;;;;;;;;15.02;38.33;97609.38;4251527;27;6301;-62
2022/03/24 15:24:33;;;;;;;;;;;;;;;15.00;38.11;97608.75;4251374;27;5788;-62
2022/03/24 15:26:35;;;;;;;;;;;;;;;14.98;38.51;97610.81;4252785;27;5686;-61
2022/03/24 15:28:39;;;;;;;;;;;;;;;15.03;38.75;97603.03;4235532;27;5761;-61
2022/03/24 15:30:41;;;;;;;;;;;;;;;15.03;38.08;97608.34;4234160;27;5604;-62
2022/03/24 15:32:43;;;;;;;;;;;;;;;15.01;38.14;97601.59;4235291;27;5642;-62
2022/03/24 15:34:45;;;;;;;;;;;;;;;15.04;38.39;97604.66;4235490;27;5767;-62
2022/03/24 15:36:47;;;;;;;;;;;;;;;15.06;38.55;97597.31;4235406;27;5657;-61
2022/03/24 15:38:49;;;;;;;;;;;;;;;15.07;38.28;97598.94;4233816;27;5659;-61
2022/03/24 15:40:51;;;;;;;;;;;;;;;15.07;38.55;97593.63;4240858;27;5621;-61
2022/03/24 15:42:54;;;;;;;;;;;;;;;15.07;38.20;97595.47;4250313;27;5637;-61
2022/03/24 15:44:56;;;;;;;;;;;;;;;15.12;38.57;97601.00;4240460;27;6155;-61
2022/03/24 15:46:58;;;;;;;;;;;;;;;15.04;38.09;97593.19;4245294;27;5765;-62
2022/03/24 15:48:59;;;;;;;;;;;;;;;15.02;38.52;97596.06;4249124;27;5717;-61
2022/03/24 15:51:02;;;;;;;;;;;;;;;15.11;38.54;97589.53;4247346;27;5803;-62
2022/03/24 15:53:03;;;;;;;;;;;;;;;15.13;38.42;97591.97;4242401;27;5696;-61
2022/03/24 15:55:07;;;;;;;;;;;;;;;15.14;37.88;97593.63;4250178;27;5715;-62
2022/03/24 15:57:09;;;;;;;;;;;;;;;15.05;38.19;97590.31;4241574;27;5782;-62
2022/03/24 15:59:12;;;;;;;;;;;;;;;15.07;38.14;97596.28;4249817;27;5750;-62
2022/03/24 16:01:15;;;;;;;;;;;;;;;15.08;38.07;97595.28;4246368;27;5837;-62
2022/03/24 16:03:17;;;;;;;;;;;;;;;15.01;38.15;97591.75;4244776;27;5710;-62
2022/03/24 16:05:19;;;;;;;;;;;;;;;14.95;38.38;97595.25;4244961;27;5773;-64
2022/03/24 16:07:21;;;;;;;;;;;;;;;14.99;38.36;97590.31;4245212;27;5711;-62
2022/03/24 16:09:22;;;;;;;;;;;;;;;14.92;38.67;97594.81;4240638;27;5775;-62
2022/03/24 16:11:24;;;;;;;;;;;;;;;15.04;38.65;97587.88;4240943;27;5779;-62
2022/03/24 16:13:27;;;;;;;;;;;;;;;15.02;38.51;97587.25;4245966;27;5884;-62
2022/03/24 16:15:28;;;;;;;;;;;;;;;15.00;37.99;97590.13;4248632;27;6345;-62
2022/03/24 16:17:31;;;;;;;;;;;;;;;14.97;38.51;97590.53;4249494;27;6514;-62
2022/03/24 16:19:33;;;;;;;;;;;;;;;14.94;38.74;97590.91;4243053;27;5732;-63
2022/03/24 16:21:35;;;;;;;;;;;;;;;14.95;39.15;97589.91;4232838;28;5867;-63
2022/03/24 16:23:37;;;;;;;;;;;;;;;14.88;39.28;97589.06;4241017;27;5747;-63
2022/03/24 16:25:39;;;;;;;;;;;;;;;14.69;39.67;97592.47;4248774;27;6434;-63
2022/03/24 16:27:41;;;;;;;;;;;;;;;14.68;39.88;97594.31;4249098;27;5726;-63
2022/03/24 16:29:43;;;;;;;;;;;;;;;14.73;40.18;97591.91;4241595;27;5731;-64
2022/03/24 16:31:44;;;;;;;;;;;;;;;14.81;39.91;97593.53;4249635;27;5872;-70
2022/03/24 16:33:46;;;;;;;;;;;;;;;14.89;40.94;97596.03;4248857;27;5711;-69
2022/03/24 16:35:49;;;;;;;;;;;;;;;14.92;41.03;97592.13;4248024;27;5696;-70
2022/03/24 16:37:51;;;;;;;;;;;;;;;14.94;42.57;97593.56;4247037;27;5731;-68
2022/03/24 16:39:53;;;;;;;;;;;;;;;15.02;43.04;97593.41;4248169;27;6316;-70
2022/03/24 16:41:55;;;;;;;;;;;;;;;15.04;43.48;97596.66;4250616;27;5709;-70
2022/03/24 16:43:57;;;;;;;;;;;;;;;15.03;43.71;97591.56;4258339;27;5735;-70
2022/03/24 16:45:59;;;;;;;;;;;;;;;15.00;43.83;97591.97;4240915;27;5795;-70
2022/03/24 16:48:01;;;;;;;;;;;;;;;15.00;44.06;97591.97;4233875;27;5775;-70
2022/03/24 16:50:06;;;;;;;;;;;;;;;14.96;43.60;97588.91;4232304;28;5850;-70
2022/03/24 16:52:08;;;;;;;;;;;;;;;14.94;43.00;97585.59;4232206;28;5769;-72
2022/03/24 16:54:10;;;;;;;;;;;;;;;14.91;42.90;97586.00;4232007;28;5791;-70
2022/03/24 16:56:12;;;;;;;;;;;;;;;14.88;43.21;97597.06;4232122;28;5757;-71
2022/03/24 16:58:14;;;;;;;;;;;;;;;14.82;42.05;97589.84;4241316;27;5707;-71
2022/03/24 17:00:19;;;;;;;;;;;;;;;14.80;42.26;97587.41;4248424;27;6444;-70
2022/03/24 17:02:20;;;;;;;;;;;;;;;14.81;42.45;97585.56;4247969;27;5808;-70
2022/03/24 17:04:22;;;;;;;;;;;;;;;14.84;42.59;97593.16;4248920;27;6515;-71
2022/03/24 17:06:25;;;;;;;;;;;;;;;14.80;42.62;97597.22;4245170;27;7331;-60
2022/03/24 17:08:27;;;;;;;;;;;;;;;14.77;42.53;97597.63;4247588;27;5715;-62
2022/03/24 17:10:29;;;;;;;;;;;;;;;14.72;42.15;97605.38;4248773;27;5628;-62
2022/03/24 17:12:30;;;;;;;;;;;;;;;14.57;45.83;97601.03;4248568;27;5723;-62
2022/03/24 17:14:32;;;;;;;;;;;;;;;14.57;45.73;97606.34;4248828;27;5816;-61
2022/03/24 17:16:34;;;;;;;;;;;;;;;14.63;46.02;97603.94;4233251;27;6393;-61
2022/03/24 17:18:37;;;;;;;;;;;;;;;14.69;46.50;97603.94;4239250;27;5707;-61
2022/03/24 17:20:38;;;;;;;;;;;;;;;14.72;48.83;97605.38;4237674;27;5809;-61
2022/03/24 17:22:41;;;;;;;;;;;;;;;14.72;48.00;97613.38;4233000;28;5666;-61
2022/03/24 17:24:43;;;;;;;;;;;;;;;14.67;49.87;97605.16;4237693;27;5830;-61
2022/03/24 17:26:45;;;;;;;;;;;;;;;14.55;51.25;97610.25;4238368;27;5635;-62
2022/03/24 17:28:46;;;;;;;;;;;;;;;14.41;51.98;97611.19;4250885;27;5659;-61